Weather at Akanu Ibiam International Airport

Public forecast

Using degrees Celsius for public forecast. Weather courtesy of forecast.io.

Current aviation weather report (METAR) for Akanu Ibiam International Airport

Retrieved 2020/10/23 07:00 UTC (50 minutes ago):

DNEN 230700Z 17003KT 4000 BR SCT009 25/24 Q1013 NOSIG

Aviation forecast (TAF) for Akanu Ibiam International Airport

Forecast is more than 12 hours old.

Retrieved 2020/10/22 18:36 UTC (13 hours ago):

TAF TAF DNEN 221700Z 2218/2324 17004KT 8000 SCT009 PROB30 TEMPO 2304/2307 5000 BR BECMG 2308/2310 25010KT BKN012